Time;durP1;ratioP1;P1;durP2;ratioP2;P2;SDS_P1;SDS_P2;PMS_P1;PMS_P2;Temp;Humidity;BMP_temperature;BMP_pressure;BME280_temperature;BME280_humidity;BME280_pressure;Samples;Min_cycle;Max_cycle;Signal;HPM_P1;HPM_P2
2021/11/22 00:00:26;;;;;;;36.50;19.73;;;;;;;;;;5052081;28;20496;-67
2021/11/22 00:02:53;;;;;;;29.70;16.40;;;;;;;;;;5053117;28;20223;-67
2021/11/22 00:05:19;;;;;;;27.05;14.80;;;;;;;;;;5053378;28;20477;-67
2021/11/22 00:07:45;;;;;;;27.48;14.48;;;;;;;;;;5052142;28;20172;-67
2021/11/22 00:10:11;;;;;;;22.55;13.30;;;;;;;;;;5092260;28;20059;-67
2021/11/22 00:12:38;;;;;;;20.77;11.15;;;;;;;;;;5093648;28;20464;-67
2021/11/22 00:15:05;;;;;;;19.80;11.50;;;;;;;;;;5075111;28;20028;-67
2021/11/22 00:17:32;;;;;;;17.40;10.35;;;;;;;;;;5075457;28;20031;-67
2021/11/22 00:19:58;;;;;;;17.65;9.75;;;;;;;;;;5093504;28;20021;-67
2021/11/22 00:22:25;;;;;;;18.88;11.00;;;;;;;;;;5093071;28;20089;-67
2021/11/22 00:24:51;;;;;;;13.68;9.30;;;;;;;;;;5093814;28;20443;-67
2021/11/22 00:27:18;;;;;;;17.88;10.35;;;;;;;;;;5093436;28;20475;-67
2021/11/22 00:29:44;;;;;;;24.55;12.05;;;;;;;;;;5074858;28;20048;-67
2021/11/22 00:32:11;;;;;;;27.83;15.48;;;;;;;;;;5062668;28;20024;-66
2021/11/22 00:34:44;;;;;;;27.02;14.57;;;;;;;;;;5097397;28;20032;-67
2021/11/22 00:37:21;;;;;;;32.35;16.52;;;;;;;;;;5078839;28;20099;-67
2021/11/22 00:39:47;;;;;;;30.75;16.95;;;;;;;;;;5079488;28;20059;-67
2021/11/22 00:42:13;;;;;;;23.52;13.05;;;;;;;;;;5079120;28;20373;-67
2021/11/22 00:44:40;;;;;;;40.67;19.60;;;;;;;;;;5078686;28;20020;-67
2021/11/22 00:47:07;;;;;;;36.67;18.85;;;;;;;;;;5097363;28;20024;-67
2021/11/22 00:49:34;;;;;;;30.33;16.45;;;;;;;;;;5097367;28;20035;-67
2021/11/22 00:52:00;;;;;;;33.97;18.15;;;;;;;;;;5096686;28;20020;-67
2021/11/22 00:54:26;;;;;;;33.00;19.92;;;;;;;;;;5097098;28;20020;-68
2021/11/22 00:56:52;;;;;;;30.15;17.80;;;;;;;;;;5097068;28;20020;-67
2021/11/22 00:59:19;;;;;;;32.25;18.00;;;;;;;;;;5096644;28;20391;-68
2021/11/22 01:01:47;;;;;;;25.70;15.10;;;;;;;;;;5078819;28;20036;-67
2021/11/22 01:04:13;;;;;;;33.95;17.15;;;;;;;;;;5097123;28;20503;-67
2021/11/22 01:06:39;;;;;;;28.05;16.58;;;;;;;;;;5096318;28;20050;-67
2021/11/22 01:09:06;;;;;;;26.45;14.50;;;;;;;;;;5096846;28;20495;-67
2021/11/22 01:11:32;;;;;;;21.17;12.57;;;;;;;;;;5078273;28;20064;-67
2021/11/22 01:13:59;;;;;;;25.67;14.30;;;;;;;;;;5078537;28;20020;-67
2021/11/22 01:16:28;;;;;;;27.83;16.17;;;;;;;;;;5078532;28;20020;-67
2021/11/22 01:18:54;;;;;;;30.17;16.73;;;;;;;;;;5096349;28;20027;-67
2021/11/22 01:21:20;;;;;;;29.60;15.82;;;;;;;;;;5096593;28;20024;-67
2021/11/22 01:23:46;;;;;;;31.10;18.70;;;;;;;;;;5096374;28;20058;-67
2021/11/22 01:26:13;;;;;;;33.38;17.38;;;;;;;;;;5096174;28;20512;-68
2021/11/22 01:28:39;;;;;;;28.48;16.08;;;;;;;;;;5078121;28;20146;-67
2021/11/22 01:31:05;;;;;;;27.08;16.17;;;;;;;;;;5096308;28;20031;-67
2021/11/22 01:33:31;;;;;;;30.77;16.63;;;;;;;;;;5096299;28;20508;-68
2021/11/22 01:35:57;;;;;;;31.73;17.40;;;;;;;;;;5096263;28;20028;-67
2021/11/22 01:38:24;;;;;;;31.38;18.45;;;;;;;;;;5096096;28;20024;-67
2021/11/22 01:40:50;;;;;;;30.17;17.77;;;;;;;;;;5095338;28;20028;-67
2021/11/22 01:43:16;;;;;;;28.73;17.80;;;;;;;;;;5077973;28;20035;-67
2021/11/22 01:45:43;;;;;;;33.75;18.48;;;;;;;;;;5096324;28;20024;-67
2021/11/22 01:48:10;;;;;;;29.75;17.15;;;;;;;;;;5095648;28;20063;-67
2021/11/22 01:50:36;;;;;;;32.80;15.77;;;;;;;;;;5077817;28;20470;-66
2021/11/22 01:53:03;;;;;;;26.65;15.18;;;;;;;;;;5077814;28;20031;-66
2021/11/22 01:55:30;;;;;;;30.67;15.23;;;;;;;;;;5095483;28;20066;-66
2021/11/22 01:57:56;;;;;;;26.40;14.60;;;;;;;;;;5095819;28;20021;-66
2021/11/22 02:00:22;;;;;;;23.90;14.13;;;;;;;;;;5077708;28;20406;-66
2021/11/22 02:02:48;;;;;;;24.23;13.10;;;;;;;;;;5095343;28;20032;-66
2021/11/22 02:05:15;;;;;;;24.98;13.90;;;;;;;;;;5095742;28;20156;-66
2021/11/22 02:07:41;;;;;;;26.90;13.88;;;;;;;;;;5095509;28;20414;-67
2021/11/22 02:10:08;;;;;;;23.50;12.15;;;;;;;;;;5095310;28;20073;-66
2021/11/22 02:12:35;;;;;;;24.10;12.00;;;;;;;;;;5095846;28;20084;-66
2021/11/22 02:15:02;;;;;;;20.85;13.23;;;;;;;;;;5077224;28;20028;-66
2021/11/22 02:17:28;;;;;;;22.10;12.45;;;;;;;;;;5095524;28;20025;-66
2021/11/22 02:19:56;;;;;;;22.58;12.45;;;;;;;;;;5095561;28;20039;-66
2021/11/22 02:22:23;;;;;;;24.75;13.75;;;;;;;;;;5094954;28;20490;-66
2021/11/22 02:24:49;;;;;;;19.48;12.77;;;;;;;;;;5077140;28;20034;-66
2021/11/22 02:27:15;;;;;;;18.45;11.68;;;;;;;;;;5077319;28;20104;-66
2021/11/22 02:29:41;;;;;;;22.42;12.05;;;;;;;;;;5094796;28;20028;-66
2021/11/22 02:32:08;;;;;;;21.02;13.05;;;;;;;;;;5095121;28;20486;-66
2021/11/22 02:34:34;;;;;;;27.40;13.35;;;;;;;;;;5095262;28;20111;-66
2021/11/22 02:37:00;;;;;;;24.65;13.35;;;;;;;;;;5094687;28;20104;-66
2021/11/22 02:39:26;;;;;;;21.50;12.18;;;;;;;;;;5095047;28;20430;-66
2021/11/22 02:41:53;;;;;;;19.98;12.80;;;;;;;;;;5094966;28;20020;-66
2021/11/22 02:44:19;;;;;;;20.80;12.18;;;;;;;;;;5094443;28;20107;-66
2021/11/22 02:46:45;;;;;;;31.75;15.55;;;;;;;;;;5095195;28;20024;-66
2021/11/22 02:49:12;;;;;;;32.75;17.02;;;;;;;;;;5094995;28;20028;-66
2021/11/22 02:51:39;;;;;;;29.73;15.88;;;;;;;;;;5094341;28;20044;-66
2021/11/22 02:54:06;;;;;;;30.45;15.05;;;;;;;;;;5093861;28;20020;-66
2021/11/22 02:56:33;;;;;;;26.92;13.70;;;;;;;;;;5094719;28;20027;-66
2021/11/22 02:59:00;;;;;;;24.45;12.80;;;;;;;;;;5076603;28;20103;-66
2021/11/22 03:01:26;;;;;;;18.95;11.05;;;;;;;;;;5094846;28;20032;-67
2021/11/22 03:03:54;;;;;;;18.98;11.50;;;;;;;;;;5094233;28;20030;-65
2021/11/22 03:06:21;;;;;;;20.27;12.93;;;;;;;;;;5094823;28;20035;-65
2021/11/22 03:08:48;;;;;;;20.73;11.60;;;;;;;;;;5075994;28;20040;-65
2021/11/22 03:11:14;;;;;;;21.17;12.07;;;;;;;;;;5075852;28;20052;-65
2021/11/22 03:13:41;;;;;;;22.73;12.93;;;;;;;;;;5094408;28;20472;-65
2021/11/22 03:16:08;;;;;;;37.38;20.30;;;;;;;;;;5094563;28;20024;-65
2021/11/22 03:18:35;;;;;;;39.08;18.98;;;;;;;;;;5093917;28;20429;-65
2021/11/22 03:21:01;;;;;;;39.80;19.08;;;;;;;;;;5094231;28;20048;-65
2021/11/22 03:23:28;;;;;;;39.65;20.05;;;;;;;;;;5094176;28;20024;-65
2021/11/22 03:25:54;;;;;;;45.88;20.77;;;;;;;;;;5093940;28;20099;-66
2021/11/22 03:28:21;;;;;;;35.95;16.92;;;;;;;;;;5094062;28;20055;-66
2021/11/22 03:30:48;;;;;;;31.35;15.70;;;;;;;;;;5094739;28;20044;-66
2021/11/22 03:33:14;;;;;;;28.05;14.45;;;;;;;;;;5093688;28;20020;-65
2021/11/22 03:35:42;;;;;;;26.55;14.18;;;;;;;;;;5094118;28;20535;-66
2021/11/22 03:38:11;;;;;;;24.27;14.65;;;;;;;;;;5075878;28;20391;-66
2021/11/22 03:40:38;;;;;;;26.98;14.05;;;;;;;;;;5093710;28;20468;-66
2021/11/22 03:45:38;;;;;;;25.55;13.90;;;;;;;;;;5094324;28;20027;-66
2021/11/22 03:48:04;;;;;;;24.75;13.98;;;;;;;;;;5075326;28;20040;-66
2021/11/22 03:50:31;;;;;;;26.90;13.30;;;;;;;;;;5093765;28;20125;-66
2021/11/22 03:52:57;;;;;;;30.98;14.27;;;;;;;;;;5093726;28;20035;-65
2021/11/22 03:55:25;;;;;;;25.23;15.30;;;;;;;;;;5093378;28;20487;-66
2021/11/22 03:57:51;;;;;;;29.52;15.70;;;;;;;;;;5075535;28;20023;-66
2021/11/22 04:00:18;;;;;;;25.70;14.00;;;;;;;;;;5093473;28;20028;-66
2021/11/22 04:02:44;;;;;;;21.38;12.65;;;;;;;;;;5093589;28;20027;-66
2021/11/22 04:05:10;;;;;;;19.58;11.57;;;;;;;;;;5075319;28;20032;-66
2021/11/22 04:07:36;;;;;;;23.05;11.98;;;;;;;;;;5093266;28;20027;-66
2021/11/22 04:10:04;;;;;;;26.52;15.35;;;;;;;;;;5093285;28;20074;-66
2021/11/22 04:12:30;;;;;;;26.05;14.02;;;;;;;;;;5093509;28;20069;-65
2021/11/22 04:14:57;;;;;;;27.25;14.32;;;;;;;;;;5093192;28;20414;-66
2021/11/22 04:17:23;;;;;;;28.25;15.68;;;;;;;;;;5093554;28;20091;-66
2021/11/22 04:19:49;;;;;;;49.22;25.65;;;;;;;;;;5075356;28;20032;-66
2021/11/22 04:22:16;;;;;;;48.63;24.48;;;;;;;;;;5093078;28;20017;-66
2021/11/22 04:24:42;;;;;;;47.25;24.10;;;;;;;;;;5093427;28;20043;-65
2021/11/22 04:27:11;;;;;;;61.72;30.55;;;;;;;;;;5093407;28;20483;-65
2021/11/22 04:29:39;;;;;;;74.10;34.53;;;;;;;;;;5074753;28;20060;-66
2021/11/22 04:32:05;;;;;;;69.32;31.52;;;;;;;;;;5093860;28;20030;-66
2021/11/22 04:34:33;;;;;;;62.17;30.60;;;;;;;;;;5093592;28;20024;-66
2021/11/22 04:37:00;;;;;;;60.58;28.88;;;;;;;;;;5074780;28;20058;-66
2021/11/22 04:39:26;;;;;;;51.85;25.23;;;;;;;;;;5093363;28;20028;-66
2021/11/22 04:41:52;;;;;;;38.08;19.58;;;;;;;;;;5093273;28;20091;-66
2021/11/22 04:44:18;;;;;;;26.75;17.77;;;;;;;;;;5092956;28;20028;-66
2021/11/22 04:46:45;;;;;;;26.80;14.45;;;;;;;;;;5093171;28;20031;-66
2021/11/22 04:49:11;;;;;;;20.15;11.77;;;;;;;;;;5075028;28;20032;-66
2021/11/22 04:51:38;;;;;;;20.00;12.48;;;;;;;;;;5092693;28;20024;-65
2021/11/22 04:54:04;;;;;;;23.20;11.68;;;;;;;;;;5093167;28;20020;-66
2021/11/22 04:56:30;;;;;;;22.70;10.68;;;;;;;;;;5092637;28;20024;-67
2021/11/22 04:58:56;;;;;;;22.17;12.23;;;;;;;;;;5093075;28;20020;-67
2021/11/22 05:01:23;;;;;;;21.58;10.70;;;;;;;;;;5093036;28;20024;-67
2021/11/22 05:03:50;;;;;;;19.67;11.90;;;;;;;;;;5092930;28;20027;-66
2021/11/22 05:06:17;;;;;;;24.15;13.38;;;;;;;;;;5093023;28;20379;-67
2021/11/22 05:08:43;;;;;;;26.13;12.68;;;;;;;;;;5092822;28;20097;-67
2021/11/22 05:11:09;;;;;;;25.17;15.20;;;;;;;;;;5074400;28;20032;-67
2021/11/22 05:13:35;;;;;;;26.10;16.20;;;;;;;;;;5093244;28;20099;-67
2021/11/22 05:16:02;;;;;;;28.58;18.58;;;;;;;;;;5093492;28;20020;-67
2021/11/22 05:18:28;;;;;;;30.63;19.40;;;;;;;;;;5096271;28;20406;-66
2021/11/22 05:20:54;;;;;;;27.77;17.92;;;;;;;;;;5096641;28;20168;-66
2021/11/22 05:23:20;;;;;;;27.95;17.85;;;;;;;;;;5096790;28;20020;-67
2021/11/22 05:25:46;;;;;;;27.00;16.73;;;;;;;;;;5078399;28;20031;-66
2021/11/22 05:28:13;;;;;;;33.83;19.38;;;;;;;;;;5096733;28;20027;-67
2021/11/22 05:30:39;;;;;;;32.10;18.83;;;;;;;;;;5096499;28;20033;-67
2021/11/22 05:33:05;;;;;;;34.90;20.80;;;;;;;;;;5095852;28;20024;-67
2021/11/22 05:35:32;;;;;;;47.00;25.40;;;;;;;;;;5096859;28;20020;-67
2021/11/22 05:37:58;;;;;;;35.90;21.42;;;;;;;;;;5078108;28;20028;-67
2021/11/22 05:40:25;;;;;;;37.17;21.35;;;;;;;;;;5095889;28;20058;-67
2021/11/22 05:42:51;;;;;;;45.78;25.38;;;;;;;;;;5078008;28;20032;-67
2021/11/22 05:45:19;;;;;;;51.63;26.98;;;;;;;;;;5096103;28;20019;-67
2021/11/22 05:47:45;;;;;;;45.65;26.50;;;;;;;;;;5095990;28;20107;-67
2021/11/22 05:50:12;;;;;;;47.53;25.80;;;;;;;;;;5095838;28;20036;-67
2021/11/22 05:52:41;;;;;;;45.90;24.52;;;;;;;;;;5095437;28;20020;-67
2021/11/22 05:55:12;;;;;;;43.08;24.25;;;;;;;;;;5077785;28;20170;-67
2021/11/22 05:57:38;;;;;;;42.88;25.48;;;;;;;;;;5095915;28;20016;-67
2021/11/22 06:00:06;;;;;;;72.40;37.28;;;;;;;;;;5095416;28;20035;-68
2021/11/22 06:02:32;;;;;;;78.10;40.92;;;;;;;;;;5095784;28;20105;-68
2021/11/22 06:04:58;;;;;;;89.57;46.60;;;;;;;;;;5095952;28;20036;-67
2021/11/22 06:07:24;;;;;;;107.65;55.70;;;;;;;;;;5095281;28;20039;-68
2021/11/22 06:09:52;;;;;;;134.75;64.03;;;;;;;;;;5077230;28;20044;-67
2021/11/22 06:12:18;;;;;;;136.57;70.63;;;;;;;;;;5077237;28;20030;-66
2021/11/22 06:14:44;;;;;;;124.38;64.13;;;;;;;;;;5112931;28;20058;-66
2021/11/22 06:17:11;;;;;;;113.45;57.00;;;;;;;;;;5109603;28;20047;-65
2021/11/22 06:19:37;;;;;;;115.50;63.85;;;;;;;;;;5103255;28;20545;-65
2021/11/22 06:22:04;;;;;;;120.32;62.67;;;;;;;;;;5085208;28;20091;-65
2021/11/22 06:24:30;;;;;;;106.43;56.88;;;;;;;;;;5082371;28;20020;-65
2021/11/22 06:26:56;;;;;;;88.68;47.65;;;;;;;;;;5075505;28;20376;-65
2021/11/22 06:29:23;;;;;;;67.38;35.33;;;;;;;;;;5074128;28;20046;-66
2021/11/22 06:31:49;;;;;;;64.57;36.47;;;;;;;;;;5074560;28;20058;-65
2021/11/22 06:34:16;;;;;;;64.85;36.40;;;;;;;;;;5056414;28;20028;-66
2021/11/22 06:36:42;;;;;;;62.45;38.10;;;;;;;;;;5074181;28;20036;-66
2021/11/22 06:39:08;;;;;;;49.53;30.45;;;;;;;;;;5074464;28;20048;-66
2021/11/22 06:41:35;;;;;;;64.32;36.45;;;;;;;;;;5074443;28;20542;-67
2021/11/22 06:44:01;;;;;;;54.72;32.60;;;;;;;;;;5070602;28;20020;-66
2021/11/22 06:46:27;;;;;;;47.13;24.92;;;;;;;;;;5085827;28;20024;-67
2021/11/22 06:48:53;;;;;;;52.63;27.75;;;;;;;;;;5114328;28;20043;-67
2021/11/22 06:51:20;;;;;;;61.03;29.83;;;;;;;;;;5096529;28;20356;-67
2021/11/22 06:53:46;;;;;;;50.65;28.40;;;;;;;;;;5113641;28;20027;-66
2021/11/22 06:56:12;;;;;;;50.47;27.80;;;;;;;;;;5114477;28;20046;-67
2021/11/22 06:58:38;;;;;;;50.58;26.88;;;;;;;;;;5114565;28;20074;-67
2021/11/22 07:01:04;;;;;;;51.38;29.10;;;;;;;;;;5112671;28;20040;-67
2021/11/22 07:03:31;;;;;;;46.05;28.98;;;;;;;;;;5113446;28;20016;-67
2021/11/22 07:05:57;;;;;;;49.65;27.73;;;;;;;;;;5095686;28;20141;-67
2021/11/22 07:08:25;;;;;;;46.40;27.42;;;;;;;;;;5095061;28;20040;-64
2021/11/22 07:10:51;;;;;;;43.92;25.40;;;;;;;;;;5113935;28;20379;-66
2021/11/22 07:13:17;;;;;;;42.22;26.23;;;;;;;;;;5114501;28;20042;-66
2021/11/22 07:15:44;;;;;;;49.97;27.73;;;;;;;;;;5114278;28;20038;-65
2021/11/22 07:18:10;;;;;;;40.05;23.27;;;;;;;;;;5113582;28;20020;-65
2021/11/22 07:20:37;;;;;;;45.85;25.83;;;;;;;;;;5113554;28;20104;-65
2021/11/22 07:23:03;;;;;;;49.63;28.25;;;;;;;;;;5114203;28;20484;-66
2021/11/22 07:25:30;;;;;;;62.08;33.80;;;;;;;;;;5113819;28;20102;-65
2021/11/22 07:27:56;;;;;;;47.88;27.45;;;;;;;;;;5112125;28;20091;-65
2021/11/22 07:30:22;;;;;;;56.00;29.90;;;;;;;;;;5106801;28;20024;-66
2021/11/22 07:32:53;;;;;;;50.67;29.10;;;;;;;;;;5093424;28;20103;-66
2021/11/22 07:35:21;;;;;;;60.25;34.75;;;;;;;;;;5093680;28;20020;-66
2021/11/22 07:37:48;;;;;;;71.03;36.95;;;;;;;;;;5093453;28;20058;-66
2021/11/22 07:40:14;;;;;;;60.38;32.05;;;;;;;;;;5092052;28;20016;-66
2021/11/22 07:42:40;;;;;;;53.33;28.27;;;;;;;;;;5091470;28;20051;-66
2021/11/22 07:45:07;;;;;;;44.28;26.50;;;;;;;;;;5091069;28;20050;-66
2021/11/22 07:47:33;;;;;;;48.72;28.25;;;;;;;;;;5091336;28;20388;-66
2021/11/22 07:49:59;;;;;;;60.17;30.80;;;;;;;;;;5091512;28;20028;-66
2021/11/22 07:52:25;;;;;;;43.35;25.00;;;;;;;;;;5091055;28;20125;-66
2021/11/22 07:54:51;;;;;;;49.20;27.33;;;;;;;;;;5091293;28;20201;-68
2021/11/22 07:57:17;;;;;;;49.00;27.30;;;;;;;;;;5093197;28;20058;-67
2021/11/22 07:59:44;;;;;;;69.55;38.78;;;;;;;;;;5092957;28;20073;-67
2021/11/22 08:02:10;;;;;;;69.95;41.28;;;;;;;;;;5093355;28;20048;-67
2021/11/22 08:04:36;;;;;;;55.65;32.60;;;;;;;;;;5093341;28;20035;-65
2021/11/22 08:07:09;;;;;;;46.85;30.55;;;;;;;;;;5074801;28;20497;-68
2021/11/22 08:09:42;;;;;;;55.55;33.35;;;;;;;;;;5074937;28;20471;-67
2021/11/22 08:14:34;;;;;;;55.47;32.30;;;;;;;;;;5088483;28;20036;-66
2021/11/22 08:17:00;;;;;;;61.30;35.90;;;;;;;;;;5095023;28;20020;-66
2021/11/22 08:19:26;;;;;;;50.35;28.83;;;;;;;;;;5112160;28;20019;-66
2021/11/22 08:21:53;;;;;;;55.97;33.92;;;;;;;;;;5112617;28;20020;-66
2021/11/22 08:24:19;;;;;;;61.47;32.58;;;;;;;;;;5111286;28;20227;-67
2021/11/22 08:26:45;;;;;;;54.92;33.50;;;;;;;;;;5113258;28;20666;-66
2021/11/22 08:29:11;;;;;;;65.20;37.55;;;;;;;;;;5094685;28;20035;-66
2021/11/22 08:31:38;;;;;;;78.03;42.47;;;;;;;;;;5113390;28;20101;-66
2021/11/22 08:34:04;;;;;;;82.63;46.55;;;;;;;;;;5111435;28;20031;-66
2021/11/22 08:36:30;;;;;;;72.13;40.35;;;;;;;;;;5088572;28;20029;-67
2021/11/22 08:38:56;;;;;;;57.35;34.45;;;;;;;;;;5076268;28;20656;-66
2021/11/22 08:41:22;;;;;;;55.20;31.67;;;;;;;;;;5071199;28;20108;-67
2021/11/22 08:43:49;;;;;;;46.85;26.33;;;;;;;;;;5069692;28;20020;-66
2021/11/22 08:46:15;;;;;;;58.05;34.10;;;;;;;;;;5079447;28;20484;-66
2021/11/22 08:48:41;;;;;;;37.58;23.25;;;;;;;;;;5110564;28;20102;-67
2021/11/22 08:51:08;;;;;;;31.20;18.30;;;;;;;;;;5112348;28;20554;-67
2021/11/22 08:53:34;;;;;;;33.17;21.40;;;;;;;;;;5115585;28;20054;-67
2021/11/22 08:56:01;;;;;;;41.70;23.05;;;;;;;;;;5092530;28;20089;-66
2021/11/22 08:58:27;;;;;;;53.63;31.70;;;;;;;;;;5082372;28;20021;-66
2021/11/22 09:00:54;;;;;;;33.10;19.48;;;;;;;;;;5089324;28;20110;-66
2021/11/22 09:03:20;;;;;;;36.35;22.13;;;;;;;;;;5115983;28;20103;-66
2021/11/22 09:05:46;;;;;;;39.95;22.75;;;;;;;;;;5116015;28;20395;-65
2021/11/22 09:08:13;;;;;;;33.42;19.25;;;;;;;;;;5115669;28;20047;-65
2021/11/22 09:10:39;;;;;;;47.63;25.48;;;;;;;;;;5115755;28;20118;-65
2021/11/22 09:13:06;;;;;;;35.70;21.33;;;;;;;;;;5116165;28;20111;-66
2021/11/22 09:15:32;;;;;;;32.85;21.42;;;;;;;;;;5110250;28;20035;-65
2021/11/22 09:17:59;;;;;;;46.20;26.15;;;;;;;;;;5082142;28;20398;-66
2021/11/22 09:20:26;;;;;;;34.25;22.00;;;;;;;;;;5085500;28;20025;-66
2021/11/22 09:22:56;;;;;;;42.00;24.52;;;;;;;;;;5081429;28;20107;-66
2021/11/22 09:25:23;;;;;;;51.08;28.00;;;;;;;;;;5075196;28;20021;-66
2021/11/22 09:27:50;;;;;;;46.42;26.23;;;;;;;;;;5075186;28;20059;-65
2021/11/22 09:30:18;;;;;;;45.92;29.60;;;;;;;;;;5082206;28;20162;-65
2021/11/22 09:32:45;;;;;;;46.67;30.65;;;;;;;;;;5088813;28;20487;-66
2021/11/22 09:35:11;;;;;;;49.00;30.17;;;;;;;;;;5095509;28;20059;-65
2021/11/22 09:37:37;;;;;;;47.50;30.17;;;;;;;;;;5095181;28;20076;-64
2021/11/22 09:40:05;;;;;;;54.40;33.85;;;;;;;;;;5095064;28;20042;-66
2021/11/22 09:42:31;;;;;;;66.43;43.58;;;;;;;;;;5102648;28;20124;-65
2021/11/22 09:44:58;;;;;;;58.60;37.70;;;;;;;;;;5115176;28;20712;-65
2021/11/22 09:47:24;;;;;;;61.88;39.88;;;;;;;;;;5092687;28;20027;-65
2021/11/22 09:49:54;;;;;;;70.55;46.67;;;;;;;;;;5079822;28;20043;-65
2021/11/22 09:52:21;;;;;;;68.05;43.88;;;;;;;;;;5115082;28;20019;-66
2021/11/22 09:54:47;;;;;;;56.45;37.17;;;;;;;;;;5115562;28;20027;-66
2021/11/22 09:57:14;;;;;;;55.97;36.65;;;;;;;;;;5112067;28;20020;-66
2021/11/22 09:59:41;;;;;;;53.85;36.45;;;;;;;;;;5115085;28;20097;-67
2021/11/22 10:02:08;;;;;;;51.50;33.25;;;;;;;;;;5114792;28;20097;-66
2021/11/22 10:04:34;;;;;;;50.08;34.17;;;;;;;;;;5115608;28;20036;-66
2021/11/22 10:07:02;;;;;;;68.18;40.78;;;;;;;;;;5114621;28;20384;-66
2021/11/22 10:09:34;;;;;;;48.67;29.73;;;;;;;;;;5115074;28;20047;-66
2021/11/22 10:12:00;;;;;;;39.85;24.90;;;;;;;;;;5115137;28;20019;-66
2021/11/22 10:14:27;;;;;;;39.22;23.75;;;;;;;;;;5113604;28;20103;-66
2021/11/22 10:16:53;;;;;;;33.65;20.42;;;;;;;;;;5115311;28;20028;-67
2021/11/22 10:19:21;;;;;;;30.52;18.50;;;;;;;;;;5113635;28;20060;-66
2021/11/22 10:21:48;;;;;;;28.17;17.83;;;;;;;;;;5106575;28;20059;-66
2021/11/22 10:24:15;;;;;;;36.50;23.90;;;;;;;;;;5081448;28;20186;-67
2021/11/22 10:26:49;;;;;;;39.20;25.60;;;;;;;;;;5072921;28;20506;-66
2021/11/22 10:29:26;;;;;;;30.38;20.98;;;;;;;;;;5053857;28;20035;-66
2021/11/22 10:31:56;;;;;;;45.80;26.67;;;;;;;;;;5082306;28;20073;-65
2021/11/22 10:34:22;;;;;;;46.72;28.48;;;;;;;;;;5112738;28;20020;-66
2021/11/22 10:37:02;;;;;;;45.60;27.67;;;;;;;;;;5111236;28;20008;-66
2021/11/22 10:39:29;;;;;;;43.60;29.73;;;;;;;;;;5114080;28;20160;-66
2021/11/22 10:41:55;;;;;;;49.53;31.45;;;;;;;;;;5113253;28;20531;-66
2021/11/22 10:44:23;;;;;;;48.28;30.73;;;;;;;;;;5114091;28;20028;-66
2021/11/22 10:46:53;;;;;;;49.38;31.60;;;;;;;;;;5114614;28;20026;-66
2021/11/22 10:49:29;;;;;;;50.40;32.72;;;;;;;;;;5114263;28;20016;-66
2021/11/22 10:52:15;;;;;;;51.70;33.90;;;;;;;;;;5114734;28;20024;-66
2021/11/22 10:54:58;;;;;;;48.00;33.05;;;;;;;;;;5114757;28;20471;-66
2021/11/22 10:57:32;;;;;;;46.35;30.48;;;;;;;;;;5108998;28;20024;-66
2021/11/22 10:59:59;;;;;;;40.15;28.73;;;;;;;;;;5108435;28;20150;-65
2021/11/22 11:02:41;;;;;;;50.28;32.65;;;;;;;;;;5112862;28;20077;-66
2021/11/22 11:05:07;;;;;;;49.90;30.65;;;;;;;;;;5114215;28;20031;-65
2021/11/22 11:07:33;;;;;;;38.72;27.08;;;;;;;;;;5114471;28;20070;-65
2021/11/22 11:10:00;;;;;;;48.70;31.33;;;;;;;;;;5112985;28;20039;-66
2021/11/22 11:12:27;;;;;;;62.40;39.78;;;;;;;;;;5113420;28;20027;-65
2021/11/22 11:14:54;;;;;;;48.53;33.03;;;;;;;;;;5113211;28;20429;-66
2021/11/22 11:17:20;;;;;;;54.55;34.28;;;;;;;;;;5094440;28;20015;-66
2021/11/22 11:19:47;;;;;;;50.90;32.58;;;;;;;;;;5114285;28;20471;-66
2021/11/22 11:22:14;;;;;;;55.33;35.10;;;;;;;;;;5112640;28;20051;-66
2021/11/22 11:24:40;;;;;;;57.30;34.40;;;;;;;;;;5111475;28;20442;-67
2021/11/22 11:27:06;;;;;;;48.78;31.65;;;;;;;;;;5111111;28;20050;-66
2021/11/22 11:29:32;;;;;;;50.83;32.78;;;;;;;;;;5092294;28;20039;-66
2021/11/22 11:31:59;;;;;;;64.47;36.83;;;;;;;;;;5092930;28;20020;-66
2021/11/22 11:34:29;;;;;;;46.35;28.52;;;;;;;;;;5112909;28;20035;-66
2021/11/22 11:37:11;;;;;;;43.33;27.35;;;;;;;;;;5112239;28;20090;-66
2021/11/22 11:39:40;;;;;;;43.05;24.95;;;;;;;;;;5113371;28;20020;-66
2021/11/22 11:42:13;;;;;;;35.00;24.42;;;;;;;;;;5114047;28;20024;-66
2021/11/22 11:44:56;;;;;;;34.05;20.58;;;;;;;;;;5111517;28;20111;-65
2021/11/22 11:47:22;;;;;;;34.70;21.65;;;;;;;;;;5110211;28;20094;-66
2021/11/22 11:49:48;;;;;;;31.60;20.50;;;;;;;;;;5092013;28;20109;-65
2021/11/22 11:52:22;;;;;;;27.58;19.02;;;;;;;;;;5110488;28;20429;-65
2021/11/22 11:54:48;;;;;;;26.92;17.73;;;;;;;;;;5110909;28;20024;-66
2021/11/22 11:57:17;;;;;;;29.75;19.00;;;;;;;;;;5108621;28;20054;-66
2021/11/22 11:59:45;;;;;;;30.08;18.48;;;;;;;;;;5110398;28;20024;-67
2021/11/22 12:04:12;;;;;;;31.40;20.48;;;;;;;;;;5108589;27;20450;-65
2021/11/22 12:08:19;;;;;;;28.27;19.17;;;;;;;;;;5109162;27;20392;-68
2021/11/22 12:10:45;;;;;;;;;;;;;;;;;;5109150;28;20035;-65
2021/11/22 12:13:11;;;;;;;30.63;18.80;;;;;;;;;;5109194;28;19907;-65
2021/11/22 12:15:37;;;;;;;32.95;21.27;;;;;;;;;;5110340;28;20043;-65
2021/11/22 12:18:08;;;;;;;26.58;17.42;;;;;;;;;;5109467;28;20501;-65
2021/11/22 12:22:17;;;;;;;45.92;29.50;;;;;;;;;;5109703;27;20388;-66
2021/11/22 12:24:44;;;;;;;25.80;17.92;;;;;;;;;;5110912;28;20123;-66
2021/11/22 12:27:29;;;;;;;37.00;23.55;;;;;;;;;;5110689;28;20024;-65
2021/11/22 12:29:56;;;;;;;31.35;20.67;;;;;;;;;;5111094;28;20422;-65
2021/11/22 12:32:33;;;;;;;28.52;19.08;;;;;;;;;;5110994;28;20098;-64
2021/11/22 12:38:16;;;;;;;27.60;18.58;;;;;;;;;;5111131;27;20454;-67
2021/11/22 12:40:47;;;;;;;27.83;18.73;;;;;;;;;;5110550;28;20031;-64
2021/11/22 12:43:13;;;;;;;32.03;19.50;;;;;;;;;;5108971;28;20032;-65
2021/11/22 12:47:42;;;;;;;29.85;19.48;;;;;;;;;;5111082;27;20385;-66
2021/11/22 12:50:08;;;;;;;26.73;18.08;;;;;;;;;;5111722;28;20019;-66
2021/11/22 12:52:36;;;;;;;24.80;18.48;;;;;;;;;;5110726;28;20095;-66
2021/11/22 12:55:20;;;;;;;30.13;18.17;;;;;;;;;;5103874;28;20020;-68
2021/11/22 12:59:29;;;;;;;30.42;17.20;;;;;;;;;;4354574;28;19758077;-66
2021/11/22 13:01:58;;;;;;;29.38;18.67;;;;;;;;;;5048366;28;20031;-65
2021/11/22 13:04:48;;;;;;;27.40;18.00;;;;;;;;;;5049597;28;20032;-67
2021/11/22 13:07:32;;;;;;;33.72;24.17;;;;;;;;;;5047187;28;20032;-65
2021/11/22 13:09:59;;;;;;;33.38;22.08;;;;;;;;;;5049719;28;20064;-66
2021/11/22 13:12:36;;;;;;;28.55;17.25;;;;;;;;;;5049729;28;20025;-67
2021/11/22 13:16:55;;;;;;;24.23;15.70;;;;;;;;;;5090589;27;20459;-64
2021/11/22 13:19:23;;;;;;;30.67;18.05;;;;;;;;;;5090880;28;20070;-65
2021/11/22 13:21:51;;;;;;;26.92;16.73;;;;;;;;;;5089654;28;20054;-65
2021/11/22 13:24:23;;;;;;;27.50;17.33;;;;;;;;;;5090307;28;20042;-65
2021/11/22 13:26:50;;;;;;;29.23;18.35;;;;;;;;;;5090254;28;20028;-65
2021/11/22 13:30:33;;;;;;;30.65;18.23;;;;;;;;;;5110841;27;20388;-65
2021/11/22 13:33:17;;;;;;;31.45;18.90;;;;;;;;;;5110862;27;20462;-65
2021/11/22 13:35:44;;;;;;;32.53;21.08;;;;;;;;;;5110916;28;20555;-66
2021/11/22 13:38:11;;;;;;;27.23;17.98;;;;;;;;;;5110820;28;20051;-66
2021/11/22 13:42:04;;;;;;;25.55;15.98;;;;;;;;;;5087057;27;20319;-67
2021/11/22 13:44:33;;;;;;;28.67;16.73;;;;;;;;;;5090388;28;20469;-67
2021/11/22 13:47:18;;;;;;;23.48;15.23;;;;;;;;;;5111675;27;20389;-65
2021/11/22 13:50:42;;;;;;;23.58;14.52;;;;;;;;;;5111060;27;20870;-66
2021/11/22 13:56:21;;;;;;;27.35;17.92;;;;;;;;;;5110925;27;20446;-66
2021/11/22 13:58:47;;;;;;;24.83;16.05;;;;;;;;;;5110900;28;20031;-66
2021/11/22 14:01:13;;;;;;;25.17;15.18;;;;;;;;;;5093147;28;20023;-67
2021/11/22 14:03:40;;;;;;;24.40;15.82;;;;;;;;;;5089079;28;20025;-66
2021/11/22 14:06:07;;;;;;;28.33;17.60;;;;;;;;;;5090199;28;20384;-66
2021/11/22 14:08:33;;;;;;;33.00;20.38;;;;;;;;;;5090686;28;20017;-66
2021/11/22 14:11:50;;;;;;;31.88;18.30;;;;;;;;;;5109618;27;20396;-67
2021/11/22 14:14:17;;;;;;;32.15;19.42;;;;;;;;;;5109357;28;20047;-66
2021/11/22 14:17:33;;;;;;;27.63;18.10;;;;;;;;;;5112067;27;20462;-66
2021/11/22 14:20:10;;;;;;;31.00;19.25;;;;;;;;;;5109811;28;20027;-66
2021/11/22 14:22:40;;;;;;;31.27;20.50;;;;;;;;;;5109206;28;20019;-67
2021/11/22 14:26:31;;;;;;;33.85;21.65;;;;;;;;;;5109285;27;20396;-66
2021/11/22 14:29:07;;;;;;;34.22;20.67;;;;;;;;;;5110292;28;20110;-67
2021/11/22 14:31:33;;;;;;;47.63;30.17;;;;;;;;;;5110647;28;20027;-67
2021/11/22 14:34:14;;;;;;;50.42;33.60;;;;;;;;;;5110521;28;20107;-67
2021/11/22 14:36:41;;;;;;;48.65;30.80;;;;;;;;;;5111302;28;20115;-66
2021/11/22 14:39:08;;;;;;;60.70;37.88;;;;;;;;;;5111169;28;20023;-67
2021/11/22 14:41:38;;;;;;;117.40;76.90;;;;;;;;;;5110906;28;20031;-67
2021/11/22 14:44:06;;;;;;;68.00;45.67;;;;;;;;;;5109654;28;20030;-67
2021/11/22 14:46:34;;;;;;;66.30;42.72;;;;;;;;;;5110968;28;20039;-65